sensor_id;sensor_type;location;lat;lon;timestamp;temperature;humidity
20759;DHT22;10539;53.686;9.158;2022-07-01T00:02:01;23.10;99.90
20759;DHT22;10539;53.686;9.158;2022-07-01T00:04:26;23.00;99.90
20759;DHT22;10539;53.686;9.158;2022-07-01T00:06:53;23.00;99.90
20759;DHT22;10539;53.686;9.158;2022-07-01T00:09:21;22.90;99.90
20759;DHT22;10539;53.686;9.158;2022-07-01T00:11:47;22.70;99.90
20759;DHT22;10539;53.686;9.158;2022-07-01T00:14:13;22.60;99.90
20759;DHT22;10539;53.686;9.158;2022-07-01T00:16:40;22.40;99.90
20759;DHT22;10539;53.686;9.158;2022-07-01T00:19:06;22.10;99.90
20759;DHT22;10539;53.686;9.158;2022-07-01T00:21:33;21.80;99.90
20759;DHT22;10539;53.686;9.158;2022-07-01T00:23:59;21.60;99.90
20759;DHT22;10539;53.686;9.158;2022-07-01T00:26:25;21.60;99.90
20759;DHT22;10539;53.686;9.158;2022-07-01T00:28:50;21.60;99.90
20759;DHT22;10539;53.686;9.158;2022-07-01T00:31:16;21.70;99.90
20759;DHT22;10539;53.686;9.158;2022-07-01T00:33:42;21.80;99.90
20759;DHT22;10539;53.686;9.158;2022-07-01T00:36:08;22.00;99.90
20759;DHT22;10539;53.686;9.158;2022-07-01T00:38:33;22.20;99.90
20759;DHT22;10539;53.686;9.158;2022-07-01T00:40:59;22.20;99.90
20759;DHT22;10539;53.686;9.158;2022-07-01T00:43:25;22.10;99.90
20759;DHT22;10539;53.686;9.158;2022-07-01T00:45:52;22.10;99.90
20759;DHT22;10539;53.686;9.158;2022-07-01T00:48:19;21.90;99.90
20759;DHT22;10539;53.686;9.158;2022-07-01T00:50:46;21.70;99.90
20759;DHT22;10539;53.686;9.158;2022-07-01T00:53:13;21.40;99.90
20759;DHT22;10539;53.686;9.158;2022-07-01T00:55:40;21.20;99.90
20759;DHT22;10539;53.686;9.158;2022-07-01T00:58:07;21.00;99.90
20759;DHT22;10539;53.686;9.158;2022-07-01T01:00:33;21.00;99.90
20759;DHT22;10539;53.686;9.158;2022-07-01T01:02:59;21.10;99.90
20759;DHT22;10539;53.686;9.158;2022-07-01T01:05:25;21.10;99.90
20759;DHT22;10539;53.686;9.158;2022-07-01T01:07:51;21.00;99.90
20759;DHT22;10539;53.686;9.158;2022-07-01T01:10:17;20.80;99.90
20759;DHT22;10539;53.686;9.158;2022-07-01T01:12:43;20.80;99.90
20759;DHT22;10539;53.686;9.158;2022-07-01T01:15:09;20.80;99.90
20759;DHT22;10539;53.686;9.158;2022-07-01T01:17:36;20.90;99.90
20759;DHT22;10539;53.686;9.158;2022-07-01T01:20:03;21.00;99.90
20759;DHT22;10539;53.686;9.158;2022-07-01T01:22:29;21.10;99.90
20759;DHT22;10539;53.686;9.158;2022-07-01T01:24:57;21.20;99.90
20759;DHT22;10539;53.686;9.158;2022-07-01T01:27:23;21.30;99.90
20759;DHT22;10539;53.686;9.158;2022-07-01T01:29:49;21.30;99.90
20759;DHT22;10539;53.686;9.158;2022-07-01T01:32:14;21.40;99.90
20759;DHT22;10539;53.686;9.158;2022-07-01T01:34:41;21.50;99.90
20759;DHT22;10539;53.686;9.158;2022-07-01T01:37:10;21.50;99.90
20759;DHT22;10539;53.686;9.158;2022-07-01T01:39:36;21.50;99.90
20759;DHT22;10539;53.686;9.158;2022-07-01T01:42:05;21.50;99.90
20759;DHT22;10539;53.686;9.158;2022-07-01T01:44:32;21.60;99.90
20759;DHT22;10539;53.686;9.158;2022-07-01T01:46:57;21.60;99.90
20759;DHT22;10539;53.686;9.158;2022-07-01T01:49:23;21.50;99.90
20759;DHT22;10539;53.686;9.158;2022-07-01T01:51:49;21.50;99.90
20759;DHT22;10539;53.686;9.158;2022-07-01T01:54:15;21.40;99.90
20759;DHT22;10539;53.686;9.158;2022-07-01T01:56:41;21.30;99.90
20759;DHT22;10539;53.686;9.158;2022-07-01T01:59:07;21.30;99.90
20759;DHT22;10539;53.686;9.158;2022-07-01T02:01:32;21.30;99.90
20759;DHT22;10539;53.686;9.158;2022-07-01T02:03:58;21.20;99.90
20759;DHT22;10539;53.686;9.158;2022-07-01T02:06:25;21.20;99.90
20759;DHT22;10539;53.686;9.158;2022-07-01T02:08:51;21.20;99.90
20759;DHT22;10539;53.686;9.158;2022-07-01T02:11:17;21.20;99.90
20759;DHT22;10539;53.686;9.158;2022-07-01T02:13:43;21.20;99.90
20759;DHT22;10539;53.686;9.158;2022-07-01T02:16:10;21.20;99.90
20759;DHT22;10539;53.686;9.158;2022-07-01T02:18:36;21.20;99.90
20759;DHT22;10539;53.686;9.158;2022-07-01T02:21:02;21.30;99.90
20759;DHT22;10539;53.686;9.158;2022-07-01T02:23:27;21.30;99.90
20759;DHT22;10539;53.686;9.158;2022-07-01T02:25:55;21.30;99.90
20759;DHT22;10539;53.686;9.158;2022-07-01T02:28:21;21.20;99.90
20759;DHT22;10539;53.686;9.158;2022-07-01T02:30:47;21.20;99.90
20759;DHT22;10539;53.686;9.158;2022-07-01T02:33:13;21.20;99.90
20759;DHT22;10539;53.686;9.158;2022-07-01T02:35:40;21.10;99.90
20759;DHT22;10539;53.686;9.158;2022-07-01T02:38:07;21.00;99.90
20759;DHT22;10539;53.686;9.158;2022-07-01T02:40:34;21.00;99.90
20759;DHT22;10539;53.686;9.158;2022-07-01T02:43:04;21.00;99.90
20759;DHT22;10539;53.686;9.158;2022-07-01T02:45:32;21.00;99.90
20759;DHT22;10539;53.686;9.158;2022-07-01T02:47:59;20.90;99.90
20759;DHT22;10539;53.686;9.158;2022-07-01T02:50:27;20.90;99.90
20759;DHT22;10539;53.686;9.158;2022-07-01T02:52:53;20.90;99.90
20759;DHT22;10539;53.686;9.158;2022-07-01T02:55:19;20.90;99.90
20759;DHT22;10539;53.686;9.158;2022-07-01T02:57:44;20.90;99.90
20759;DHT22;10539;53.686;9.158;2022-07-01T03:00:12;20.80;99.90
20759;DHT22;10539;53.686;9.158;2022-07-01T03:02:39;20.80;99.90
20759;DHT22;10539;53.686;9.158;2022-07-01T03:05:06;20.80;99.90
20759;DHT22;10539;53.686;9.158;2022-07-01T03:07:32;20.80;99.90
20759;DHT22;10539;53.686;9.158;2022-07-01T03:10:00;20.80;99.90
20759;DHT22;10539;53.686;9.158;2022-07-01T03:12:26;20.80;99.90
20759;DHT22;10539;53.686;9.158;2022-07-01T03:14:59;20.80;99.90
20759;DHT22;10539;53.686;9.158;2022-07-01T03:17:27;20.70;99.90
20759;DHT22;10539;53.686;9.158;2022-07-01T03:19:55;20.60;99.90
20759;DHT22;10539;53.686;9.158;2022-07-01T03:22:23;20.70;99.90
20759;DHT22;10539;53.686;9.158;2022-07-01T03:24:49;20.60;99.90
20759;DHT22;10539;53.686;9.158;2022-07-01T03:27:16;20.60;99.90
20759;DHT22;10539;53.686;9.158;2022-07-01T03:29:42;20.50;99.90
20759;DHT22;10539;53.686;9.158;2022-07-01T03:32:08;20.50;99.90
20759;DHT22;10539;53.686;9.158;2022-07-01T03:34:39;20.40;99.90
20759;DHT22;10539;53.686;9.158;2022-07-01T03:37:06;20.40;99.90
20759;DHT22;10539;53.686;9.158;2022-07-01T03:39:32;20.40;99.90
20759;DHT22;10539;53.686;9.158;2022-07-01T03:41:58;20.30;99.90
20759;DHT22;10539;53.686;9.158;2022-07-01T03:44:24;20.30;99.90
20759;DHT22;10539;53.686;9.158;2022-07-01T03:46:49;20.30;99.90
20759;DHT22;10539;53.686;9.158;2022-07-01T03:49:15;20.10;99.90
20759;DHT22;10539;53.686;9.158;2022-07-01T03:51:41;19.90;99.90
20759;DHT22;10539;53.686;9.158;2022-07-01T03:54:06;19.70;99.90
20759;DHT22;10539;53.686;9.158;2022-07-01T03:56:51;19.60;99.90
20759;DHT22;10539;53.686;9.158;2022-07-01T03:59:17;19.40;99.90
20759;DHT22;10539;53.686;9.158;2022-07-01T04:01:43;19.20;99.90
20759;DHT22;10539;53.686;9.158;2022-07-01T04:04:08;19.30;99.90
20759;DHT22;10539;53.686;9.158;2022-07-01T04:06:34;19.20;99.90
20759;DHT22;10539;53.686;9.158;2022-07-01T04:09:00;19.10;99.90
20759;DHT22;10539;53.686;9.158;2022-07-01T04:11:26;19.10;99.90
20759;DHT22;10539;53.686;9.158;2022-07-01T04:13:52;19.10;99.90
20759;DHT22;10539;53.686;9.158;2022-07-01T04:16:19;19.10;99.90
20759;DHT22;10539;53.686;9.158;2022-07-01T04:18:49;19.10;99.90
20759;DHT22;10539;53.686;9.158;2022-07-01T04:21:15;19.10;99.90
20759;DHT22;10539;53.686;9.158;2022-07-01T04:23:59;19.10;99.90
20759;DHT22;10539;53.686;9.158;2022-07-01T04:26:26;19.10;99.90
20759;DHT22;10539;53.686;9.158;2022-07-01T04:28:52;19.10;99.90
20759;DHT22;10539;53.686;9.158;2022-07-01T04:31:18;19.10;99.90
20759;DHT22;10539;53.686;9.158;2022-07-01T04:33:45;19.10;99.90
20759;DHT22;10539;53.686;9.158;2022-07-01T04:36:11;19.10;99.90
20759;DHT22;10539;53.686;9.158;2022-07-01T04:38:38;19.10;99.90
20759;DHT22;10539;53.686;9.158;2022-07-01T04:41:03;19.00;99.90
20759;DHT22;10539;53.686;9.158;2022-07-01T04:43:47;19.00;99.90
20759;DHT22;10539;53.686;9.158;2022-07-01T04:46:13;18.90;99.90
20759;DHT22;10539;53.686;9.158;2022-07-01T04:48:39;18.90;99.90
20759;DHT22;10539;53.686;9.158;2022-07-01T04:51:06;18.90;99.90
20759;DHT22;10539;53.686;9.158;2022-07-01T04:53:31;18.80;99.90
20759;DHT22;10539;53.686;9.158;2022-07-01T04:55:57;18.80;99.90
20759;DHT22;10539;53.686;9.158;2022-07-01T04:58:23;18.80;99.90
20759;DHT22;10539;53.686;9.158;2022-07-01T05:00:49;18.80;99.90
20759;DHT22;10539;53.686;9.158;2022-07-01T05:03:15;18.80;99.90
20759;DHT22;10539;53.686;9.158;2022-07-01T05:05:42;18.70;99.90
20759;DHT22;10539;53.686;9.158;2022-07-01T05:08:08;18.80;99.90
20759;DHT22;10539;53.686;9.158;2022-07-01T05:10:33;18.80;99.90
20759;DHT22;10539;53.686;9.158;2022-07-01T05:12:59;18.80;99.90
20759;DHT22;10539;53.686;9.158;2022-07-01T05:15:25;18.80;99.90
20759;DHT22;10539;53.686;9.158;2022-07-01T05:17:50;18.80;99.90
20759;DHT22;10539;53.686;9.158;2022-07-01T05:20:35;18.80;99.90
20759;DHT22;10539;53.686;9.158;2022-07-01T05:23:19;18.80;99.90
20759;DHT22;10539;53.686;9.158;2022-07-01T05:25:45;18.80;99.90
20759;DHT22;10539;53.686;9.158;2022-07-01T05:28:10;18.80;99.90
20759;DHT22;10539;53.686;9.158;2022-07-01T05:30:36;18.80;99.90
20759;DHT22;10539;53.686;9.158;2022-07-01T05:33:02;18.80;99.90
20759;DHT22;10539;53.686;9.158;2022-07-01T05:35:28;18.90;99.90
20759;DHT22;10539;53.686;9.158;2022-07-01T05:37:53;18.90;99.90
20759;DHT22;10539;53.686;9.158;2022-07-01T05:40:19;18.90;99.90
20759;DHT22;10539;53.686;9.158;2022-07-01T05:42:45;18.90;99.90
20759;DHT22;10539;53.686;9.158;2022-07-01T05:45:10;18.90;99.90
20759;DHT22;10539;53.686;9.158;2022-07-01T05:47:36;18.90;99.90
20759;DHT22;10539;53.686;9.158;2022-07-01T05:50:02;18.90;99.90
20759;DHT22;10539;53.686;9.158;2022-07-01T05:52:28;18.80;99.90
20759;DHT22;10539;53.686;9.158;2022-07-01T05:54:53;18.80;99.90
20759;DHT22;10539;53.686;9.158;2022-07-01T05:57:19;18.80;99.90
20759;DHT22;10539;53.686;9.158;2022-07-01T05:59:45;18.80;99.90
20759;DHT22;10539;53.686;9.158;2022-07-01T06:02:10;18.80;99.90
20759;DHT22;10539;53.686;9.158;2022-07-01T06:04:36;18.70;99.90
20759;DHT22;10539;53.686;9.158;2022-07-01T06:07:02;18.70;99.90
20759;DHT22;10539;53.686;9.158;2022-07-01T06:09:28;18.70;99.90
20759;DHT22;10539;53.686;9.158;2022-07-01T06:11:53;18.60;99.90
20759;DHT22;10539;53.686;9.158;2022-07-01T06:14:19;18.60;99.90
20759;DHT22;10539;53.686;9.158;2022-07-01T06:16:45;18.60;99.90
20759;DHT22;10539;53.686;9.158;2022-07-01T06:19:10;18.60;99.90
20759;DHT22;10539;53.686;9.158;2022-07-01T06:21:36;18.60;99.90
20759;DHT22;10539;53.686;9.158;2022-07-01T06:24:02;18.50;99.90
20759;DHT22;10539;53.686;9.158;2022-07-01T06:26:28;18.50;99.90
20759;DHT22;10539;53.686;9.158;2022-07-01T06:28:53;18.50;99.90
20759;DHT22;10539;53.686;9.158;2022-07-01T06:31:19;18.40;99.90
20759;DHT22;10539;53.686;9.158;2022-07-01T06:33:45;18.40;99.90
20759;DHT22;10539;53.686;9.158;2022-07-01T06:36:11;18.40;99.90
20759;DHT22;10539;53.686;9.158;2022-07-01T06:38:39;18.50;99.90
20759;DHT22;10539;53.686;9.158;2022-07-01T06:41:04;18.50;99.90
20759;DHT22;10539;53.686;9.158;2022-07-01T06:43:49;18.60;99.90
20759;DHT22;10539;53.686;9.158;2022-07-01T06:46:14;18.60;99.90
20759;DHT22;10539;53.686;9.158;2022-07-01T06:48:40;18.70;99.90
20759;DHT22;10539;53.686;9.158;2022-07-01T06:51:06;18.70;99.90
20759;DHT22;10539;53.686;9.158;2022-07-01T06:53:31;18.70;99.90
20759;DHT22;10539;53.686;9.158;2022-07-01T06:55:57;18.80;99.90
20759;DHT22;10539;53.686;9.158;2022-07-01T06:58:23;18.80;99.90
20759;DHT22;10539;53.686;9.158;2022-07-01T07:00:49;18.80;99.90
20759;DHT22;10539;53.686;9.158;2022-07-01T07:03:14;18.80;99.90
20759;DHT22;10539;53.686;9.158;2022-07-01T07:05:40;18.70;99.90
20759;DHT22;10539;53.686;9.158;2022-07-01T07:08:06;18.70;99.90
20759;DHT22;10539;53.686;9.158;2022-07-01T07:10:32;18.70;99.90
20759;DHT22;10539;53.686;9.158;2022-07-01T07:12:58;18.70;99.90
20759;DHT22;10539;53.686;9.158;2022-07-01T07:15:23;18.80;99.90
20759;DHT22;10539;53.686;9.158;2022-07-01T07:17:49;18.90;99.90
20759;DHT22;10539;53.686;9.158;2022-07-01T07:20:15;19.00;99.90
20759;DHT22;10539;53.686;9.158;2022-07-01T07:22:40;19.00;99.90
20759;DHT22;10539;53.686;9.158;2022-07-01T07:25:06;19.00;99.90
20759;DHT22;10539;53.686;9.158;2022-07-01T07:27:32;19.00;99.90
20759;DHT22;10539;53.686;9.158;2022-07-01T07:29:58;18.90;99.90
20759;DHT22;10539;53.686;9.158;2022-07-01T07:32:23;18.90;99.90
20759;DHT22;10539;53.686;9.158;2022-07-01T07:34:49;18.90;99.90
20759;DHT22;10539;53.686;9.158;2022-07-01T07:37:15;18.90;99.90
20759;DHT22;10539;53.686;9.158;2022-07-01T07:39:41;18.90;99.90
20759;DHT22;10539;53.686;9.158;2022-07-01T07:42:06;18.80;99.90
20759;DHT22;10539;53.686;9.158;2022-07-01T07:44:32;18.80;99.90
20759;DHT22;10539;53.686;9.158;2022-07-01T07:46:58;18.80;99.90
20759;DHT22;10539;53.686;9.158;2022-07-01T07:49:24;18.80;99.90
20759;DHT22;10539;53.686;9.158;2022-07-01T07:51:51;18.70;99.90
20759;DHT22;10539;53.686;9.158;2022-07-01T07:54:17;18.70;99.90
20759;DHT22;10539;53.686;9.158;2022-07-01T07:56:43;18.70;99.90
20759;DHT22;10539;53.686;9.158;2022-07-01T07:59:09;18.60;99.90
20759;DHT22;10539;53.686;9.158;2022-07-01T08:01:35;18.70;99.90
20759;DHT22;10539;53.686;9.158;2022-07-01T08:04:00;18.70;99.90
20759;DHT22;10539;53.686;9.158;2022-07-01T08:06:26;18.70;99.90
20759;DHT22;10539;53.686;9.158;2022-07-01T08:08:54;18.70;99.90
20759;DHT22;10539;53.686;9.158;2022-07-01T08:11:20;18.80;99.90
20759;DHT22;10539;53.686;9.158;2022-07-01T08:13:45;18.70;99.90
20759;DHT22;10539;53.686;9.158;2022-07-01T08:16:11;18.70;99.90
20759;DHT22;10539;53.686;9.158;2022-07-01T08:18:37;18.70;99.90
20759;DHT22;10539;53.686;9.158;2022-07-01T08:21:03;18.70;99.90
20759;DHT22;10539;53.686;9.158;2022-07-01T08:23:29;18.70;99.90
20759;DHT22;10539;53.686;9.158;2022-07-01T08:25:55;18.70;99.90
20759;DHT22;10539;53.686;9.158;2022-07-01T08:28:20;18.70;99.90
20759;DHT22;10539;53.686;9.158;2022-07-01T08:30:46;18.70;99.90
20759;DHT22;10539;53.686;9.158;2022-07-01T08:33:12;18.70;99.90
20759;DHT22;10539;53.686;9.158;2022-07-01T08:35:38;18.70;99.90
20759;DHT22;10539;53.686;9.158;2022-07-01T08:38:06;18.70;99.90
20759;DHT22;10539;53.686;9.158;2022-07-01T08:40:32;18.70;99.90
20759;DHT22;10539;53.686;9.158;2022-07-01T08:43:00;18.70;99.90
20759;DHT22;10539;53.686;9.158;2022-07-01T08:45:28;18.70;99.90
20759;DHT22;10539;53.686;9.158;2022-07-01T08:47:55;18.80;99.90
20759;DHT22;10539;53.686;9.158;2022-07-01T08:50:26;18.90;99.90
20759;DHT22;10539;53.686;9.158;2022-07-01T08:52:53;19.00;99.90
20759;DHT22;10539;53.686;9.158;2022-07-01T08:55:23;19.00;99.90
20759;DHT22;10539;53.686;9.158;2022-07-01T08:57:49;19.00;99.90
20759;DHT22;10539;53.686;9.158;2022-07-01T09:00:19;19.00;99.90
20759;DHT22;10539;53.686;9.158;2022-07-01T09:03:04;19.10;99.90
20759;DHT22;10539;53.686;9.158;2022-07-01T09:05:35;19.20;99.90
20759;DHT22;10539;53.686;9.158;2022-07-01T09:08:06;19.20;99.90
20759;DHT22;10539;53.686;9.158;2022-07-01T09:10:34;19.20;99.90
20759;DHT22;10539;53.686;9.158;2022-07-01T09:13:07;19.10;99.90
20759;DHT22;10539;53.686;9.158;2022-07-01T09:15:34;19.10;99.90
20759;DHT22;10539;53.686;9.158;2022-07-01T09:20:40;19.10;99.90
20759;DHT22;10539;53.686;9.158;2022-07-01T09:23:08;19.10;99.90
20759;DHT22;10539;53.686;9.158;2022-07-01T09:25:40;19.10;99.90
20759;DHT22;10539;53.686;9.158;2022-07-01T09:28:11;19.20;99.90
20759;DHT22;10539;53.686;9.158;2022-07-01T09:30:42;19.20;99.90
20759;DHT22;10539;53.686;9.158;2022-07-01T09:33:33;19.30;99.90
20759;DHT22;10539;53.686;9.158;2022-07-01T09:36:01;19.40;99.90
20759;DHT22;10539;53.686;9.158;2022-07-01T09:38:28;19.50;99.90
20759;DHT22;10539;53.686;9.158;2022-07-01T09:41:03;19.60;99.90
20759;DHT22;10539;53.686;9.158;2022-07-01T09:43:33;19.60;99.90
20759;DHT22;10539;53.686;9.158;2022-07-01T09:46:08;19.50;99.90
20759;DHT22;10539;53.686;9.158;2022-07-01T09:51:17;19.40;99.90
20759;DHT22;10539;53.686;9.158;2022-07-01T09:53:46;19.40;99.90
20759;DHT22;10539;53.686;9.158;2022-07-01T09:56:12;19.40;99.90
20759;DHT22;10539;53.686;9.158;2022-07-01T09:58:38;19.40;99.90
20759;DHT22;10539;53.686;9.158;2022-07-01T10:01:05;19.30;99.90
20759;DHT22;10539;53.686;9.158;2022-07-01T10:03:32;19.30;99.90
20759;DHT22;10539;53.686;9.158;2022-07-01T10:06:18;19.40;99.90
20759;DHT22;10539;53.686;9.158;2022-07-01T10:12:30;19.70;99.90
20759;DHT22;10539;53.686;9.158;2022-07-01T10:14:58;19.80;99.90
20759;DHT22;10539;53.686;9.158;2022-07-01T10:17:29;19.60;99.90
20759;DHT22;10539;53.686;9.158;2022-07-01T10:19:56;19.50;99.90
20759;DHT22;10539;53.686;9.158;2022-07-01T10:22:28;19.60;99.90
20759;DHT22;10539;53.686;9.158;2022-07-01T10:24:55;19.60;99.90
20759;DHT22;10539;53.686;9.158;2022-07-01T10:27:24;19.70;99.90
20759;DHT22;10539;53.686;9.158;2022-07-01T10:30:12;19.70;99.90
20759;DHT22;10539;53.686;9.158;2022-07-01T10:32:48;19.70;99.90
20759;DHT22;10539;53.686;9.158;2022-07-01T10:35:14;19.80;99.90
20759;DHT22;10539;53.686;9.158;2022-07-01T10:37:59;19.80;99.90
20759;DHT22;10539;53.686;9.158;2022-07-01T10:40:45;20.00;99.90
20759;DHT22;10539;53.686;9.158;2022-07-01T10:43:30;20.10;99.90
20759;DHT22;10539;53.686;9.158;2022-07-01T10:45:56;20.20;99.90
20759;DHT22;10539;53.686;9.158;2022-07-01T10:48:24;20.20;99.90
20759;DHT22;10539;53.686;9.158;2022-07-01T10:50:50;20.20;99.90
20759;DHT22;10539;53.686;9.158;2022-07-01T10:53:17;20.10;99.90
20759;DHT22;10539;53.686;9.158;2022-07-01T10:55:47;20.10;99.90
20759;DHT22;10539;53.686;9.158;2022-07-01T10:58:14;20.20;99.90
20759;DHT22;10539;53.686;9.158;2022-07-01T11:00:45;20.20;99.90
20759;DHT22;10539;53.686;9.158;2022-07-01T11:03:15;20.20;99.90
20759;DHT22;10539;53.686;9.158;2022-07-01T11:05:42;20.20;99.90
20759;DHT22;10539;53.686;9.158;2022-07-01T11:08:09;20.20;99.90
20759;DHT22;10539;53.686;9.158;2022-07-01T11:10:41;20.20;99.90
20759;DHT22;10539;53.686;9.158;2022-07-01T11:13:13;20.10;99.90
20759;DHT22;10539;53.686;9.158;2022-07-01T11:15:39;20.20;99.90
20759;DHT22;10539;53.686;9.158;2022-07-01T11:18:06;20.20;99.90
20759;DHT22;10539;53.686;9.158;2022-07-01T11:20:33;20.20;99.90
20759;DHT22;10539;53.686;9.158;2022-07-01T11:22:59;20.20;99.90
20759;DHT22;10539;53.686;9.158;2022-07-01T11:25:25;20.20;99.90
20759;DHT22;10539;53.686;9.158;2022-07-01T11:27:53;20.30;99.90
20759;DHT22;10539;53.686;9.158;2022-07-01T11:30:23;20.30;99.90
20759;DHT22;10539;53.686;9.158;2022-07-01T11:32:52;20.30;99.90
20759;DHT22;10539;53.686;9.158;2022-07-01T11:35:27;20.30;99.90
20759;DHT22;10539;53.686;9.158;2022-07-01T11:38:24;20.30;99.90
20759;DHT22;10539;53.686;9.158;2022-07-01T11:41:21;20.30;99.90
20759;DHT22;10539;53.686;9.158;2022-07-01T11:43:48;20.30;99.90
20759;DHT22;10539;53.686;9.158;2022-07-01T11:46:14;20.30;99.90
20759;DHT22;10539;53.686;9.158;2022-07-01T11:48:45;20.30;99.90
20759;DHT22;10539;53.686;9.158;2022-07-01T11:51:21;20.40;99.90
20759;DHT22;10539;53.686;9.158;2022-07-01T11:53:49;20.30;99.90
20759;DHT22;10539;53.686;9.158;2022-07-01T11:56:26;20.30;99.90
20759;DHT22;10539;53.686;9.158;2022-07-01T11:58:53;20.30;99.90
20759;DHT22;10539;53.686;9.158;2022-07-01T12:01:26;20.30;99.90
20759;DHT22;10539;53.686;9.158;2022-07-01T12:03:52;20.30;99.90
20759;DHT22;10539;53.686;9.158;2022-07-01T12:06:18;20.30;99.90
20759;DHT22;10539;53.686;9.158;2022-07-01T12:08:46;20.30;99.90
20759;DHT22;10539;53.686;9.158;2022-07-01T12:11:13;20.30;99.90
20759;DHT22;10539;53.686;9.158;2022-07-01T12:13:39;20.50;99.90
20759;DHT22;10539;53.686;9.158;2022-07-01T12:16:06;20.60;99.90
20759;DHT22;10539;53.686;9.158;2022-07-01T12:18:32;20.70;99.90
20759;DHT22;10539;53.686;9.158;2022-07-01T12:20:58;20.80;99.90
20759;DHT22;10539;53.686;9.158;2022-07-01T12:23:24;20.90;99.90
20759;DHT22;10539;53.686;9.158;2022-07-01T12:25:51;21.00;99.90
20759;DHT22;10539;53.686;9.158;2022-07-01T12:28:38;21.20;99.90
20759;DHT22;10539;53.686;9.158;2022-07-01T12:31:09;21.30;99.90
20759;DHT22;10539;53.686;9.158;2022-07-01T12:33:38;21.50;99.90
20759;DHT22;10539;53.686;9.158;2022-07-01T12:36:06;21.60;99.90
20759;DHT22;10539;53.686;9.158;2022-07-01T12:38:32;21.70;99.90
20759;DHT22;10539;53.686;9.158;2022-07-01T12:40:59;21.70;99.90
20759;DHT22;10539;53.686;9.158;2022-07-01T12:43:27;21.60;99.90
20759;DHT22;10539;53.686;9.158;2022-07-01T12:45:58;21.60;99.90
20759;DHT22;10539;53.686;9.158;2022-07-01T12:48:24;21.60;99.90
20759;DHT22;10539;53.686;9.158;2022-07-01T12:50:55;21.70;99.90
20759;DHT22;10539;53.686;9.158;2022-07-01T12:53:23;21.70;99.90
20759;DHT22;10539;53.686;9.158;2022-07-01T12:55:52;21.80;99.90
20759;DHT22;10539;53.686;9.158;2022-07-01T12:58:21;22.00;99.90
20759;DHT22;10539;53.686;9.158;2022-07-01T13:00:48;21.90;99.90
20759;DHT22;10539;53.686;9.158;2022-07-01T13:03:19;21.90;99.90
20759;DHT22;10539;53.686;9.158;2022-07-01T13:05:45;21.90;99.90
20759;DHT22;10539;53.686;9.158;2022-07-01T13:08:11;22.00;99.90
20759;DHT22;10539;53.686;9.158;2022-07-01T13:10:37;22.00;99.90
20759;DHT22;10539;53.686;9.158;2022-07-01T13:13:04;22.10;99.90
20759;DHT22;10539;53.686;9.158;2022-07-01T13:15:30;22.10;99.90
20759;DHT22;10539;53.686;9.158;2022-07-01T13:17:56;22.20;99.90
20759;DHT22;10539;53.686;9.158;2022-07-01T13:20:22;22.20;99.90
20759;DHT22;10539;53.686;9.158;2022-07-01T13:22:48;22.30;99.90
20759;DHT22;10539;53.686;9.158;2022-07-01T13:25:14;22.40;99.90
20759;DHT22;10539;53.686;9.158;2022-07-01T13:27:40;22.50;99.90
20759;DHT22;10539;53.686;9.158;2022-07-01T13:30:09;22.50;99.90
20759;DHT22;10539;53.686;9.158;2022-07-01T13:32:36;22.40;99.90
20759;DHT22;10539;53.686;9.158;2022-07-01T13:35:03;22.30;99.90
20759;DHT22;10539;53.686;9.158;2022-07-01T13:37:29;22.10;99.90
20759;DHT22;10539;53.686;9.158;2022-07-01T13:39:55;22.20;99.90
20759;DHT22;10539;53.686;9.158;2022-07-01T13:42:21;22.20;99.90
20759;DHT22;10539;53.686;9.158;2022-07-01T13:44:47;22.30;99.90
20759;DHT22;10539;53.686;9.158;2022-07-01T13:47:13;22.30;99.90
20759;DHT22;10539;53.686;9.158;2022-07-01T13:49:41;22.30;99.90
20759;DHT22;10539;53.686;9.158;2022-07-01T13:52:10;22.30;99.90
20759;DHT22;10539;53.686;9.158;2022-07-01T13:54:36;22.40;99.90
20759;DHT22;10539;53.686;9.158;2022-07-01T13:57:03;22.50;99.90
20759;DHT22;10539;53.686;9.158;2022-07-01T13:59:28;22.50;99.90
20759;DHT22;10539;53.686;9.158;2022-07-01T14:01:54;22.60;99.90
20759;DHT22;10539;53.686;9.158;2022-07-01T14:04:20;22.50;99.90
20759;DHT22;10539;53.686;9.158;2022-07-01T14:06:46;22.50;99.90
20759;DHT22;10539;53.686;9.158;2022-07-01T14:09:12;22.60;99.90
20759;DHT22;10539;53.686;9.158;2022-07-01T14:11:38;22.50;99.90
20759;DHT22;10539;53.686;9.158;2022-07-01T14:14:03;22.50;99.90
20759;DHT22;10539;53.686;9.158;2022-07-01T14:16:29;22.40;99.90
20759;DHT22;10539;53.686;9.158;2022-07-01T14:18:56;22.60;99.90
20759;DHT22;10539;53.686;9.158;2022-07-01T14:21:22;22.70;99.90
20759;DHT22;10539;53.686;9.158;2022-07-01T14:23:48;22.70;99.90
20759;DHT22;10539;53.686;9.158;2022-07-01T14:26:14;22.70;99.90
20759;DHT22;10539;53.686;9.158;2022-07-01T14:28:40;22.80;99.90
20759;DHT22;10539;53.686;9.158;2022-07-01T14:31:09;22.80;99.90
20759;DHT22;10539;53.686;9.158;2022-07-01T14:33:35;22.90;99.90
20759;DHT22;10539;53.686;9.158;2022-07-01T14:36:01;22.80;99.90
20759;DHT22;10539;53.686;9.158;2022-07-01T14:38:26;22.80;99.90
20759;DHT22;10539;53.686;9.158;2022-07-01T14:40:52;22.80;99.90
20759;DHT22;10539;53.686;9.158;2022-07-01T14:43:18;22.80;99.90
20759;DHT22;10539;53.686;9.158;2022-07-01T14:45:44;22.70;99.90
20759;DHT22;10539;53.686;9.158;2022-07-01T14:48:12;22.60;99.90
20759;DHT22;10539;53.686;9.158;2022-07-01T14:50:40;22.60;99.90
20759;DHT22;10539;53.686;9.158;2022-07-01T14:53:06;22.50;99.90
20759;DHT22;10539;53.686;9.158;2022-07-01T14:55:33;22.50;99.90
20759;DHT22;10539;53.686;9.158;2022-07-01T14:57:59;22.40;99.90
20759;DHT22;10539;53.686;9.158;2022-07-01T15:00:25;22.30;99.90
20759;DHT22;10539;53.686;9.158;2022-07-01T15:02:52;22.20;99.90
20759;DHT22;10539;53.686;9.158;2022-07-01T15:05:17;22.20;99.90
20759;DHT22;10539;53.686;9.158;2022-07-01T15:07:44;22.20;99.90
20759;DHT22;10539;53.686;9.158;2022-07-01T15:10:10;22.30;99.90
20759;DHT22;10539;53.686;9.158;2022-07-01T15:12:35;22.30;99.90
20759;DHT22;10539;53.686;9.158;2022-07-01T15:15:01;22.30;99.90
20759;DHT22;10539;53.686;9.158;2022-07-01T15:17:27;22.30;99.90
20759;DHT22;10539;53.686;9.158;2022-07-01T15:19:53;22.50;99.90
20759;DHT22;10539;53.686;9.158;2022-07-01T15:22:19;22.70;99.90
20759;DHT22;10539;53.686;9.158;2022-07-01T15:24:44;22.70;99.90
20759;DHT22;10539;53.686;9.158;2022-07-01T15:27:10;22.80;99.90
20759;DHT22;10539;53.686;9.158;2022-07-01T15:29:37;22.70;99.90
20759;DHT22;10539;53.686;9.158;2022-07-01T15:32:03;22.80;99.90
20759;DHT22;10539;53.686;9.158;2022-07-01T15:34:29;22.80;99.90
20759;DHT22;10539;53.686;9.158;2022-07-01T15:36:54;22.80;99.90
20759;DHT22;10539;53.686;9.158;2022-07-01T15:39:20;22.70;99.90
20759;DHT22;10539;53.686;9.158;2022-07-01T15:41:46;22.70;99.90